Jamestown, ND

7:50 PM CDT on March 30, 2015 (GMT -0500)
Leapaldt Addition | | Change Station
CLOSE
Current Station
Personal Weather Station
Location: Jamestown, ND
Elevation: 1486 ft
Nearby Weather Stations

Elev 1486 ft 46.93 °N, 98.69 °W | Updated 4 minutes ago

Partly Cloudy
Partly Cloudy
59.2 °F
Feels Like 59.2 °F
N
13.5
Wind Variable Wind from WNW

Today
High -- | Low -- °F
--% Chance of Precip.
Yesterday
High -- | Low -- °F
Precip. -- in
7:18 AM 8:01 PM
Waxing Gibbous, 83% visible
Pressure 29.88 in
Visibility 10.0 miles
Clouds Few 9500 ft
Dew Point 32 °F
Humidity 36%
Rainfall 0.00 in
Snow Depth Not available.
UV 1 out of 12
Pollen 4.10 out of 12
Air Quality Not available.
Flu Activity Not available.
METAR KJMS 302356Z AUTO 33015G23KT 10SM FEW095 17/M01 A2985 RMK AO2 PK WND 32028/2338 SLP116 T01671006 10183 20161 51007

More Conditions Fewer Conditions

Pressure 29.88 in
Visibility 10.0 miles
Clouds Few 9500 ft
Dew Point 32 °F
Humidity 36%
Rainfall 0.00 in
Snow Depth Not available.
UV 1 out of 12
Pollen 4.10 out of 12
Air Quality Not available.
Flu Activity Not available.
METAR KJMS 302356Z AUTO 33015G23KT 10SM FEW095 17/M01 A2985 RMK AO2 PK WND 32028/2338 SLP116 T01671006 10183 20161 51007

More Conditions Fewer Conditions

10-Day Weather Forecast

Almanac

Astronomy

Mar. 30, 2015 Rise Set
Actual Time
Civil Twilight
Nautical Twilight
Astronomical Twilight
Moon
Length of Visible Light
Length of Day
Tomorrow will be .
, % of the Moon is Illuminated

Today's Extremes

State Highs State Lows

Community

WunderPhotos

Upload Photos

1,809,638 photos uploaded!

WunderBlogs® & News

Nearby

Air Quality

  Air Quality AQ Index Pollutant
Not available.

Snow Depth

Station Depth Elevation

Earthquake Activity

City Distance Mag. Time & Date
Minimum magnitude displayed is 2.5.

Coastal Water Temperatures

Place Temperature

Stations

Nearby Weather Stations

Station Location Temp. Windchill Dew Point Humidity Wind Precip. Elev Updated Type